Mountain Home, ID (83647)

4:35 PM MST on February 28, 2015 (GMT -0700)
NonFedAWOS MOUNTAIN HOME ID US SUPERAWOS | Change Station
CLOSE
Current Station
Personal Weather Station
Location: Mountain Home, ID
Elevation: 3160 ft
Nearby Weather Stations

Elev 3160 ft 43.13 °N, 115.73 °W | Updated 40 minutes ago

Overcast
Overcast
43 °F
Feels Like 36 °F
N
15
Wind Variable Wind from WNW
Gusts 20.0 mph

Today
High -- | Low -- °F
--% Chance of Precip.
Yesterday
High -- | Low -- °F
Precip. -- in
7:20 AM 6:30 PM
Waxing Gibbous, 81% visible
Pressure 29.84 in
Visibility 10.0 miles
Clouds Scattered Clouds 3200 ft
Windchill 36 °F
Dew Point 36 °F
Humidity 76%
Rainfall -999.00 in
Snow Depth Not available.
UV 1 out of 12
Pollen .50 out of 12
Air Quality Not available.
Flu Activity Not available.
SPECI KMUO 282328Z AUTO 33013KT 10SM SCT032 08/00 A2984 RMK AO2

More Conditions Fewer Conditions

Pressure 29.84 in
Visibility 10.0 miles
Clouds Scattered Clouds 3200 ft
Windchill 36 °F
Dew Point 36 °F
Humidity 76%
Rainfall -999.00 in
Snow Depth Not available.
UV 1 out of 12
Pollen .50 out of 12
Air Quality Not available.
Flu Activity Not available.
SPECI KMUO 282328Z AUTO 33013KT 10SM SCT032 08/00 A2984 RMK AO2

More Conditions Fewer Conditions

10-Day Weather Forecast

Almanac

Astronomy

Feb. 28, 2015 Rise Set
Actual Time
Civil Twilight
Nautical Twilight
Astronomical Twilight
Moon
Length of Visible Light
Length of Day
Tomorrow will be .
, % of the Moon is Illuminated

Today's Extremes

State Highs State Lows

Community

WunderPhotos

Upload Photos

1,801,176 photos uploaded!

WunderBlogs® & News

Nearby

Air Quality

  Air Quality AQ Index Pollutant
Not available.

Snow Depth

Station Depth Elevation

Earthquake Activity

City Distance Mag. Time & Date
Minimum magnitude displayed is 2.5.

Coastal Water Temperatures

Place Temperature

Nearby Weather Stations